Sodville, Texas
Current Conditions -  °F | °C
As of 10:51 PM on Wednesday 22 Oct 2014 (Local Time) from KCRP Reporting Station
Broken Clouds Broken Clouds  
Wind Chill: 74°   Ceiling: 25000
Heat Index: 74°   Visibility: 10mi
Dew Point: 65°   Wind: 9mph
Humidity: 73%   Direction: 90°E
Pressure: 30.06"   Gusts: NA
Location:  28.0577°N, 97.5365°W
Report Text: KCRP 230351Z 09008KT 10SM FEW022 SCT200 BKN250 23/18 A3006 RMK AO2 SLP177 T02330183
Loading
Personal Weather Stations






























Interactive Weather Map
Tropical Storm Tracking
New forecast layout! Learn more

10-Day Weather Forecast

Advertisements
Track Severe Weather on mobile